createdAt,value
2018-04-29T00:00:09.469Z,66.50
2018-04-29T00:02:36.141Z,66.50
2018-04-29T00:05:02.879Z,67.10
2018-04-29T00:07:29.536Z,66.90
2018-04-29T00:09:56.213Z,67.20
2018-04-29T00:12:22.862Z,67.90
2018-04-29T00:14:49.518Z,68.40
2018-04-29T00:17:16.173Z,68.70
2018-04-29T00:19:42.828Z,68.20
2018-04-29T00:22:09.515Z,68.50
2018-04-29T00:24:36.160Z,69.00
2018-04-29T00:27:02.848Z,68.10
2018-04-29T00:29:29.500Z,66.30
2018-04-29T00:31:56.908Z,66.00
2018-04-29T00:34:23.575Z,65.90
2018-04-29T00:36:50.256Z,67.00
2018-04-29T00:39:16.936Z,68.50
2018-04-29T00:41:43.589Z,68.40
2018-04-29T00:44:10.248Z,68.80
2018-04-29T00:46:37.640Z,68.70
2018-04-29T00:49:04.320Z,68.70
2018-04-29T00:51:49.366Z,68.60
2018-04-29T00:54:16.044Z,68.70
2018-04-29T00:56:43.428Z,69.20
2018-04-29T00:59:10.188Z,69.10
2018-04-29T01:01:36.868Z,69.50
2018-04-29T01:04:04.276Z,69.60
2018-04-29T01:06:30.935Z,69.60
2018-04-29T01:08:57.596Z,69.40
2018-04-29T01:11:24.248Z,68.70
2018-04-29T01:13:51.661Z,68.60
2018-04-29T01:16:18.345Z,68.60
2018-04-29T01:18:45.741Z,68.90
2018-04-29T01:21:13.180Z,69.40
2018-04-29T01:23:39.861Z,69.40
2018-04-29T01:26:06.508Z,69.80
2018-04-29T01:28:33.167Z,70.20
2018-04-29T01:31:00.626Z,71.60
2018-04-29T01:33:28.068Z,72.10
2018-04-29T01:35:55.508Z,72.60
2018-04-29T01:38:22.960Z,73.80
2018-04-29T01:40:49.640Z,73.80
2018-04-29T01:43:16.305Z,74.60
2018-04-29T01:45:43.748Z,75.60
2018-04-29T01:48:10.864Z,75.60
2018-04-29T01:50:38.399Z,74.80
2018-04-29T01:53:06.004Z,74.70
2018-04-29T01:55:32.716Z,74.20
2018-04-29T01:58:00.191Z,74.80
2018-04-29T02:00:26.989Z,74.80
2018-04-29T02:02:53.775Z,73.40
2018-04-29T02:05:20.428Z,73.40
2018-04-29T02:07:47.081Z,73.50
2018-04-29T02:10:13.736Z,72.90
2018-04-29T02:12:40.443Z,72.30
2018-04-29T02:15:07.121Z,71.70
2018-04-29T02:17:33.795Z,71.50
2018-04-29T02:20:01.217Z,72.80
2018-04-29T02:22:27.858Z,72.70
2018-04-29T02:24:54.508Z,73.00
2018-04-29T02:27:21.164Z,74.10
2018-04-29T02:29:48.556Z,76.20
2018-04-29T02:32:15.212Z,76.20
2018-04-29T02:34:41.875Z,76.70
2018-04-29T02:37:08.566Z,77.10
2018-04-29T02:39:35.222Z,77.80
2018-04-29T02:42:01.931Z,78.70
2018-04-29T02:44:28.671Z,79.10
2018-04-29T02:46:55.379Z,78.80
2018-04-29T02:49:22.829Z,78.30
2018-04-29T02:51:49.524Z,78.30
2018-04-29T02:54:16.229Z,78.20
2018-04-29T02:56:43.702Z,77.60
2018-04-29T02:59:10.397Z,77.60
2018-04-29T03:01:37.121Z,78.10
2018-04-29T03:04:03.878Z,78.00
2018-04-29T03:06:30.572Z,78.10
2018-04-29T03:08:57.274Z,78.80
2018-04-29T03:11:24.752Z,78.40
2018-04-29T03:13:51.475Z,78.30
2018-04-29T03:16:18.880Z,78.10
2018-04-29T03:18:45.531Z,78.10
2018-04-29T03:21:12.235Z,77.60
2018-04-29T03:23:38.931Z,78.00
2018-04-29T03:26:06.371Z,75.10
2018-04-29T03:28:33.076Z,75.10
2018-04-29T03:30:59.784Z,74.90
2018-04-29T03:33:26.491Z,75.60
2018-04-29T03:35:53.216Z,75.10
2018-04-29T03:38:19.931Z,74.70
2018-04-29T03:40:46.683Z,75.50
2018-04-29T03:43:13.437Z,74.80
2018-04-29T03:45:40.157Z,74.50
2018-04-29T03:48:06.858Z,74.90
2018-04-29T03:50:33.563Z,74.90
2018-04-29T03:53:00.263Z,75.50
2018-04-29T03:55:27.015Z,75.00
2018-04-29T03:58:12.303Z,75.60
2018-04-29T04:00:57.869Z,77.70
2018-04-29T04:03:42.903Z,77.30
2018-04-29T04:06:09.642Z,78.40
2018-04-29T04:08:36.351Z,78.70
2018-04-29T04:11:06.456Z,79.00
2018-04-29T04:13:33.948Z,80.80
2018-04-29T04:16:01.426Z,80.60
2018-04-29T04:18:28.123Z,80.60
2018-04-29T04:20:54.856Z,80.20
2018-04-29T04:23:21.543Z,79.90
2018-04-29T04:25:48.196Z,79.70
2018-04-29T04:28:14.854Z,77.20
2018-04-29T04:30:41.534Z,75.80
2018-04-29T04:33:08.928Z,76.50
2018-04-29T04:35:35.594Z,76.50
2018-04-29T04:38:02.523Z,77.60
2018-04-29T04:40:29.246Z,78.80
2018-04-29T04:42:55.968Z,79.80
2018-04-29T04:45:22.691Z,79.60
2018-04-29T04:47:49.425Z,77.10
2018-04-29T04:50:16.920Z,77.30
2018-04-29T04:52:44.318Z,76.90
2018-04-29T04:55:10.996Z,76.90
2018-04-29T04:57:37.663Z,76.50
2018-04-29T05:00:04.368Z,77.90
2018-04-29T05:02:31.008Z,77.60
2018-04-29T05:04:57.656Z,77.50
2018-04-29T05:07:24.327Z,77.90
2018-04-29T05:09:51.005Z,77.50
2018-04-29T05:12:18.460Z,80.30
2018-04-29T05:14:45.941Z,80.00
2018-04-29T05:17:12.751Z,80.00
2018-04-29T05:19:40.196Z,79.60
2018-04-29T05:22:06.904Z,79.60
2018-04-29T05:24:33.641Z,78.10
2018-04-29T05:27:00.324Z,78.40
2018-04-29T05:29:27.816Z,78.00
2018-04-29T05:31:54.561Z,78.00
2018-04-29T05:34:21.248Z,77.00
2018-04-29T05:36:48.708Z,76.70
2018-04-29T05:39:15.396Z,76.70
2018-04-29T05:41:42.108Z,77.10
2018-04-29T05:44:08.843Z,75.80
2018-04-29T05:46:36.317Z,73.60
2018-04-29T05:49:03.116Z,72.80
2018-04-29T05:51:29.884Z,72.90
2018-04-29T05:53:57.339Z,74.20
2018-04-29T05:56:24.772Z,73.60
2018-04-29T05:58:51.494Z,73.60
2018-04-29T06:01:18.230Z,73.50
2018-04-29T06:03:44.932Z,72.80
2018-04-29T06:06:11.697Z,73.20
2018-04-29T06:08:38.380Z,73.70
2018-04-29T06:11:05.808Z,73.90
2018-04-29T06:13:32.490Z,73.80
2018-04-29T06:15:59.177Z,72.60
2018-04-29T06:18:25.892Z,73.00
2018-04-29T06:20:52.565Z,72.90
2018-04-29T06:23:19.237Z,72.60
2018-04-29T06:25:46.672Z,68.40
2018-04-29T06:28:13.333Z,68.40
2018-04-29T06:30:40.748Z,64.50
2018-04-29T06:33:07.497Z,64.50
2018-04-29T06:35:34.139Z,63.50
2018-04-29T06:38:00.827Z,62.80
2018-04-29T06:40:27.492Z,63.20
2018-04-29T06:42:54.160Z,63.00
2018-04-29T06:45:20.837Z,62.30
2018-04-29T06:47:47.562Z,61.50
2018-04-29T06:50:14.244Z,63.40
2018-04-29T06:52:40.912Z,64.10
2018-04-29T06:55:07.560Z,63.60
2018-04-29T06:57:34.992Z,62.00
2018-04-29T07:00:01.712Z,62.00
2018-04-29T07:02:28.444Z,60.00
2018-04-29T07:04:55.098Z,58.70
2018-04-29T07:07:21.767Z,58.70
2018-04-29T07:09:51.366Z,57.20
2018-04-29T07:12:18.020Z,56.80
2018-04-29T07:14:45.400Z,54.90
2018-04-29T07:17:12.073Z,54.90
2018-04-29T07:19:38.749Z,55.00
2018-04-29T07:22:06.159Z,53.60
2018-04-29T07:24:32.808Z,53.60
2018-04-29T07:26:59.465Z,55.50
2018-04-29T07:29:26.158Z,56.70
2018-04-29T07:32:04.735Z,57.00
2018-04-29T07:34:32.160Z,54.60
2018-04-29T07:36:59.660Z,54.60
2018-04-29T07:39:26.338Z,51.80
2018-04-29T07:41:53.003Z,49.30
2018-04-29T07:44:19.693Z,47.90
2018-04-29T07:46:46.346Z,46.70
2018-04-29T07:49:13.860Z,45.70
2018-04-29T07:51:41.263Z,45.90
2018-04-29T07:54:07.948Z,45.80
2018-04-29T07:56:35.348Z,42.60
2018-04-29T07:59:02.002Z,42.50
2018-04-29T08:01:28.641Z,43.70
2018-04-29T08:03:55.313Z,42.60
2018-04-29T08:06:21.996Z,44.60
2018-04-29T08:08:48.643Z,44.80
2018-04-29T08:11:15.341Z,45.00
2018-04-29T08:13:42.750Z,45.50
2018-04-29T08:16:09.436Z,45.50
2018-04-29T08:18:36.110Z,44.80
2018-04-29T08:21:02.793Z,45.20
2018-04-29T08:23:29.475Z,45.10
2018-04-29T08:25:56.658Z,44.30
2018-04-29T08:28:23.340Z,45.70
2018-04-29T08:30:50.756Z,46.60
2018-04-29T08:33:17.423Z,46.50
2018-04-29T08:35:44.832Z,45.50
2018-04-29T08:38:11.488Z,45.60
2018-04-29T08:40:38.141Z,45.30
2018-04-29T08:43:04.846Z,44.30
2018-04-29T08:45:31.523Z,40.90
2018-04-29T08:47:58.176Z,40.10
2018-04-29T08:50:25.576Z,39.50
2018-04-29T08:52:52.229Z,39.40
2018-04-29T08:55:18.897Z,37.50
2018-04-29T08:57:46.312Z,38.60
2018-04-29T09:00:12.993Z,39.20
2018-04-29T09:02:40.404Z,37.90
2018-04-29T09:05:07.077Z,37.90
2018-04-29T09:07:33.717Z,34.70
2018-04-29T09:10:00.363Z,34.10
2018-04-29T09:12:30.964Z,34.70
2018-04-29T09:14:57.672Z,32.90
2018-04-29T09:17:24.391Z,32.50
2018-04-29T09:19:52.164Z,31.20
2018-04-29T09:22:20.031Z,31.40
2018-04-29T09:24:47.611Z,35.20
2018-04-29T09:27:14.267Z,35.20
2018-04-29T09:29:41.016Z,37.00
2018-04-29T09:32:07.676Z,34.50
2018-04-29T09:34:35.109Z,35.20
2018-04-29T09:37:01.925Z,35.20
2018-04-29T09:39:29.535Z,33.70
2018-04-29T09:41:56.968Z,35.10
2018-04-29T09:44:23.666Z,35.10
2018-04-29T09:46:50.348Z,33.60
2018-04-29T09:49:17.095Z,33.10
2018-04-29T09:51:44.568Z,30.40
2018-04-29T09:54:12.006Z,30.70
2018-04-29T09:56:38.688Z,30.60
2018-04-29T09:59:05.353Z,29.50
2018-04-29T10:01:34.863Z,30.40
2018-04-29T10:04:01.523Z,29.10
2018-04-29T10:06:28.225Z,28.60
2018-04-29T10:08:54.920Z,27.50
2018-04-29T10:11:21.640Z,29.30
2018-04-29T10:13:48.345Z,27.90
2018-04-29T10:16:14.967Z,26.30
2018-04-29T10:18:41.638Z,27.10
2018-04-29T10:21:08.325Z,27.40
2018-04-29T10:23:35.003Z,26.10
2018-04-29T10:26:01.681Z,27.00
2018-04-29T10:28:28.447Z,27.00
2018-04-29T10:30:55.153Z,26.20
2018-04-29T10:33:22.602Z,27.20
2018-04-29T10:35:49.292Z,27.10
2018-04-29T10:38:16.028Z,28.90
2018-04-29T10:40:42.721Z,28.10
2018-04-29T10:43:09.402Z,30.20
2018-04-29T10:45:36.079Z,30.30
2018-04-29T10:48:02.808Z,30.50
2018-04-29T10:50:29.478Z,29.20
2018-04-29T10:52:56.161Z,29.80
2018-04-29T10:55:23.624Z,28.10
2018-04-29T10:57:50.297Z,28.20
2018-04-29T11:00:16.978Z,28.60
2018-04-29T11:02:43.700Z,30.00
2018-04-29T11:05:11.118Z,28.20
2018-04-29T11:07:37.793Z,28.20
2018-04-29T11:10:05.286Z,27.90
2018-04-29T11:12:32.001Z,27.80
2018-04-29T11:14:58.768Z,28.60
2018-04-29T11:17:25.455Z,29.50
2018-04-29T11:19:52.133Z,29.50
2018-04-29T11:22:18.892Z,29.60
2018-04-29T11:24:46.268Z,28.60
2018-04-29T11:27:12.938Z,28.60
2018-04-29T11:29:40.380Z,28.80
2018-04-29T11:32:07.073Z,28.80
2018-04-29T11:34:33.728Z,29.30
2018-04-29T11:37:00.417Z,27.50
2018-04-29T11:39:27.838Z,29.80
2018-04-29T11:41:54.504Z,29.70
2018-04-29T11:44:21.905Z,26.60
2018-04-29T11:46:48.662Z,26.50
2018-04-29T11:49:15.389Z,27.10
2018-04-29T11:51:42.048Z,25.50
2018-04-29T11:54:08.753Z,24.50
2018-04-29T11:56:35.428Z,25.40
2018-04-29T11:59:02.145Z,24.10
2018-04-29T12:01:28.842Z,24.40
2018-04-29T12:03:55.505Z,24.40
2018-04-29T12:06:22.217Z,23.90
2018-04-29T12:08:48.917Z,22.70
2018-04-29T12:11:15.590Z,22.80
2018-04-29T12:13:43.061Z,22.80
2018-04-29T12:16:09.739Z,22.80
2018-04-29T12:18:36.400Z,24.00
2018-04-29T12:21:03.085Z,25.10
2018-04-29T12:23:29.745Z,24.50
2018-04-29T12:25:56.459Z,24.80
2018-04-29T12:28:23.152Z,23.80
2018-04-29T12:30:49.852Z,24.00
2018-04-29T12:33:16.569Z,23.80
2018-04-29T12:35:43.224Z,24.20
2018-04-29T12:38:09.910Z,25.40
2018-04-29T12:40:36.577Z,26.00
2018-04-29T12:43:03.305Z,26.30
2018-04-29T12:45:30.793Z,25.40
2018-04-29T12:47:57.490Z,25.40
2018-04-29T12:50:24.161Z,26.10
2018-04-29T12:52:50.828Z,25.80
2018-04-29T12:55:17.581Z,27.60
2018-04-29T12:57:44.262Z,26.60
2018-04-29T13:00:11.765Z,27.20
2018-04-29T13:02:38.395Z,27.20
2018-04-29T13:05:05.145Z,27.90
2018-04-29T13:07:31.827Z,28.00
2018-04-29T13:09:59.274Z,25.10
2018-04-29T13:12:25.960Z,25.10
2018-04-29T13:14:52.640Z,24.80
2018-04-29T13:17:19.327Z,23.90
2018-04-29T13:19:45.987Z,24.20
2018-04-29T13:22:12.724Z,24.20
2018-04-29T13:24:39.466Z,24.90
2018-04-29T13:27:06.143Z,25.40
2018-04-29T13:29:33.634Z,24.30
2018-04-29T13:32:01.045Z,24.30
2018-04-29T13:34:27.732Z,24.30
2018-04-29T13:36:54.422Z,23.80
2018-04-29T13:39:21.124Z,24.30
2018-04-29T13:41:47.792Z,25.50
2018-04-29T13:44:14.497Z,25.80
2018-04-29T13:46:41.203Z,25.60
2018-04-29T13:49:07.912Z,26.30
2018-04-29T13:51:35.529Z,26.80
2018-04-29T13:54:02.204Z,27.50
2018-04-29T13:56:28.915Z,26.40
2018-04-29T13:58:55.653Z,26.70
2018-04-29T14:01:22.303Z,25.80
2018-04-29T14:03:49.012Z,26.40
2018-04-29T14:06:15.664Z,26.00
2018-04-29T14:08:42.364Z,24.50
2018-04-29T14:11:09.777Z,24.90
2018-04-29T14:13:36.477Z,24.80
2018-04-29T14:16:03.287Z,25.00
2018-04-29T14:18:29.892Z,24.50
2018-04-29T14:20:56.577Z,24.50
2018-04-29T14:23:24.021Z,24.40
2018-04-29T14:25:50.686Z,24.40
2018-04-29T14:28:17.365Z,24.00
2018-04-29T14:30:44.044Z,23.00
2018-04-29T14:33:11.449Z,24.30
2018-04-29T14:35:38.128Z,24.30
2018-04-29T14:38:05.609Z,25.60
2018-04-29T14:40:32.329Z,25.50
2018-04-29T14:42:59.756Z,27.40
2018-04-29T14:45:27.189Z,27.30
2018-04-29T14:47:53.851Z,26.60
2018-04-29T14:50:20.548Z,26.40
2018-04-29T14:52:47.228Z,25.50
2018-04-29T14:55:13.934Z,26.20
2018-04-29T14:57:40.611Z,27.00
2018-04-29T15:00:07.304Z,25.60
2018-04-29T15:02:34.022Z,25.80
2018-04-29T15:05:01.562Z,25.70
2018-04-29T15:07:28.248Z,25.70
2018-04-29T15:09:54.916Z,25.90
2018-04-29T15:12:21.654Z,25.90
2018-04-29T15:14:48.348Z,25.00
2018-04-29T15:17:15.090Z,24.80
2018-04-29T15:19:49.795Z,25.50
2018-04-29T15:22:16.628Z,25.30
2018-04-29T15:24:44.109Z,25.40
2018-04-29T15:27:10.845Z,25.70
2018-04-29T15:29:38.301Z,24.60
2018-04-29T15:32:05.842Z,24.80
2018-04-29T15:34:33.315Z,25.40
2018-04-29T15:37:00.775Z,25.20
2018-04-29T15:39:27.474Z,25.20
2018-04-29T15:41:54.214Z,26.60
2018-04-29T15:44:21.014Z,26.30
2018-04-29T15:46:48.161Z,26.30
2018-04-29T15:49:14.870Z,26.30
2018-04-29T15:51:42.340Z,27.20
2018-04-29T15:54:09.835Z,27.50
2018-04-29T15:56:36.597Z,27.50
2018-04-29T15:59:03.347Z,27.10
2018-04-29T16:01:30.045Z,28.20
2018-04-29T16:03:56.772Z,27.10
2018-04-29T16:06:23.516Z,27.30
2018-04-29T16:08:50.181Z,27.10
2018-04-29T16:11:16.896Z,27.80
2018-04-29T16:13:43.582Z,28.10
2018-04-29T16:16:10.331Z,27.60
2018-04-29T16:18:37.809Z,26.80
2018-04-29T16:21:04.610Z,27.20
2018-04-29T16:23:31.310Z,27.10
2018-04-29T16:25:58.134Z,26.60
2018-04-29T16:28:24.846Z,27.00
2018-04-29T16:30:51.631Z,27.20
2018-04-29T16:33:18.395Z,27.80
2018-04-29T16:35:45.146Z,27.90
2018-04-29T16:38:12.689Z,29.20
2018-04-29T16:40:41.081Z,29.20
2018-04-29T16:43:07.861Z,29.80
2018-04-29T16:45:35.350Z,31.50
2018-04-29T16:48:02.386Z,31.50
2018-04-29T16:50:29.055Z,31.60
2018-04-29T16:52:55.769Z,31.60
2018-04-29T16:55:22.516Z,31.10
2018-04-29T16:57:49.228Z,32.20
2018-04-29T17:00:15.908Z,32.40
2018-04-29T17:02:43.504Z,31.90
2018-04-29T17:05:10.149Z,32.60
2018-04-29T17:07:37.593Z,33.00
2018-04-29T17:10:04.316Z,32.90
2018-04-29T17:12:31.014Z,33.50
2018-04-29T17:14:57.661Z,33.90
2018-04-29T17:17:24.349Z,34.40
2018-04-29T17:19:51.053Z,34.10
2018-04-29T17:22:18.526Z,35.50
2018-04-29T17:24:45.238Z,36.30
2018-04-29T17:27:11.914Z,36.50
2018-04-29T17:29:38.606Z,37.00
2018-04-29T17:32:05.276Z,37.50
2018-04-29T17:34:32.726Z,38.00
2018-04-29T17:36:59.396Z,38.00
2018-04-29T17:39:26.853Z,39.30
2018-04-29T17:41:54.280Z,39.20
2018-04-29T17:44:20.948Z,38.90
2018-04-29T17:46:48.401Z,39.50
2018-04-29T17:49:15.065Z,39.50
2018-04-29T17:51:41.737Z,40.10
2018-04-29T17:54:08.417Z,40.10
2018-04-29T17:56:35.142Z,39.80
2018-04-29T17:59:01.805Z,39.60
2018-04-29T18:01:29.291Z,40.00
2018-04-29T18:03:55.929Z,40.00
2018-04-29T18:06:22.617Z,40.10
2018-04-29T18:08:49.349Z,40.00
2018-04-29T18:11:16.024Z,39.90
2018-04-29T18:14:05.189Z,40.70
2018-04-29T18:16:32.661Z,40.70
2018-04-29T18:18:59.354Z,41.10
2018-04-29T18:21:26.022Z,41.60
2018-04-29T18:23:53.429Z,42.90
2018-04-29T18:26:20.132Z,42.90
2018-04-29T18:28:46.861Z,43.10
2018-04-29T18:31:17.443Z,43.90
2018-04-29T18:33:44.193Z,43.90
2018-04-29T18:36:10.912Z,44.20
2018-04-29T18:38:37.584Z,44.90
2018-04-29T18:41:05.047Z,44.90
2018-04-29T18:43:32.539Z,45.30
2018-04-29T18:45:59.320Z,45.30
2018-04-29T18:48:26.029Z,45.20
2018-04-29T18:50:52.885Z,45.20
2018-04-29T18:53:19.508Z,45.70
2018-04-29T18:55:46.222Z,46.60
2018-04-29T18:58:12.996Z,46.70
2018-04-29T19:00:39.718Z,46.20
2018-04-29T19:03:06.437Z,46.40
2018-04-29T19:05:46.714Z,44.50
2018-04-29T19:08:13.442Z,43.90
2018-04-29T19:10:41.387Z,43.20
2018-04-29T19:13:08.861Z,42.10
2018-04-29T19:15:36.436Z,42.10
2018-04-29T19:18:04.014Z,41.00
2018-04-29T19:20:30.736Z,41.00
2018-04-29T19:22:57.497Z,40.40
2018-04-29T19:25:24.181Z,40.20
2018-04-29T19:27:51.664Z,39.60
2018-04-29T19:30:18.344Z,39.50
2018-04-29T19:32:45.020Z,39.40
2018-04-29T19:35:12.447Z,39.90
2018-04-29T19:37:39.166Z,39.80
2018-04-29T19:40:05.858Z,40.00
2018-04-29T19:42:32.592Z,40.20
2018-04-29T19:45:00.030Z,40.70
2018-04-29T19:47:26.687Z,40.80
2018-04-29T19:49:54.117Z,39.50
2018-04-29T19:52:20.839Z,39.50
2018-04-29T19:54:47.493Z,38.40
2018-04-29T19:57:14.206Z,38.10
2018-04-29T19:59:40.899Z,37.40
2018-04-29T20:02:08.341Z,37.40
2018-04-29T20:04:35.769Z,37.70
2018-04-29T20:07:02.544Z,37.70
2018-04-29T20:09:30.008Z,37.90
2018-04-29T20:11:57.441Z,37.80
2018-04-29T20:14:24.145Z,37.80
2018-04-29T20:16:50.844Z,38.00
2018-04-29T20:19:18.279Z,38.20
2018-04-29T20:21:44.952Z,38.20
2018-04-29T20:24:11.675Z,38.00
2018-04-29T20:26:39.124Z,38.70
2018-04-29T20:29:06.579Z,39.30
2018-04-29T20:31:34.013Z,39.10
2018-04-29T20:34:00.745Z,39.10
2018-04-29T20:36:27.405Z,38.90
2018-04-29T20:38:54.811Z,39.10
2018-04-29T20:41:21.498Z,39.10
2018-04-29T20:43:54.134Z,39.20
2018-04-29T20:46:20.792Z,38.80
2018-04-29T20:48:47.482Z,39.10
2018-04-29T20:51:14.161Z,39.30
2018-04-29T20:53:40.837Z,39.50
2018-04-29T20:56:08.241Z,40.10
2018-04-29T20:58:34.922Z,40.10
2018-04-29T21:01:02.457Z,40.20
2018-04-29T21:03:29.112Z,40.10
2018-04-29T21:05:55.785Z,40.80
2018-04-29T21:08:22.472Z,42.00
2018-04-29T21:10:49.217Z,41.80
2018-04-29T21:13:15.894Z,42.60
2018-04-29T21:15:42.553Z,43.00
2018-04-29T21:18:09.233Z,42.10
2018-04-29T21:20:35.905Z,43.00
2018-04-29T21:23:03.342Z,43.70
2018-04-29T21:25:30.812Z,44.00
2018-04-29T21:27:58.264Z,44.40
2018-04-29T21:30:25.662Z,44.90
2018-04-29T21:32:52.357Z,44.90
2018-04-29T21:35:19.837Z,46.00
2018-04-29T21:37:46.491Z,45.90
2018-04-29T21:40:13.184Z,46.50
2018-04-29T21:42:39.865Z,47.00
2018-04-29T21:45:06.569Z,47.60
2018-04-29T21:47:33.247Z,48.60
2018-04-29T21:49:59.934Z,49.20
2018-04-29T21:52:26.609Z,49.50
2018-04-29T21:54:53.320Z,50.00
2018-04-29T21:57:19.985Z,50.20
2018-04-29T21:59:46.672Z,50.80
2018-04-29T22:02:13.354Z,51.30
2018-04-29T22:04:40.077Z,51.70
2018-04-29T22:07:07.491Z,52.50
2018-04-29T22:09:34.160Z,52.50
2018-04-29T22:12:00.814Z,52.50
2018-04-29T22:14:29.087Z,53.20
2018-04-29T22:16:56.524Z,54.40
2018-04-29T22:19:23.265Z,54.40
2018-04-29T22:21:49.929Z,55.10
2018-04-29T22:24:16.591Z,55.40
2018-04-29T22:26:43.287Z,55.80
2018-04-29T22:29:09.932Z,56.50
2018-04-29T22:31:37.319Z,57.10
2018-04-29T22:34:04.047Z,57.00
2018-04-29T22:36:30.744Z,57.20
2018-04-29T22:38:57.434Z,57.40
2018-04-29T22:41:24.122Z,57.60
2018-04-29T22:43:50.860Z,57.80
2018-04-29T22:46:17.522Z,58.00
2018-04-29T22:48:44.932Z,59.80
2018-04-29T22:51:11.612Z,59.80
2018-04-29T22:53:38.986Z,58.80
2018-04-29T22:56:05.645Z,58.80
2018-04-29T22:58:32.317Z,58.90
2018-04-29T23:00:59.028Z,58.10
2018-04-29T23:03:25.691Z,58.60
2018-04-29T23:05:52.362Z,59.50
2018-04-29T23:08:19.796Z,60.00
2018-04-29T23:10:46.450Z,60.00
2018-04-29T23:13:13.856Z,60.90
2018-04-29T23:15:40.544Z,60.80
2018-04-29T23:18:07.936Z,61.90
2018-04-29T23:20:34.624Z,61.90
2018-04-29T23:23:01.324Z,62.40
2018-04-29T23:25:27.971Z,61.30
2018-04-29T23:27:54.804Z,61.90
2018-04-29T23:30:21.457Z,62.20
2018-04-29T23:32:48.116Z,62.30
2018-04-29T23:35:14.781Z,64.00
2018-04-29T23:37:41.432Z,62.00
2018-04-29T23:40:08.092Z,62.70
2018-04-29T23:42:34.751Z,63.10
2018-04-29T23:45:01.437Z,64.10
2018-04-29T23:47:28.118Z,64.40
2018-04-29T23:49:54.792Z,65.30
2018-04-29T23:52:21.464Z,65.70
2018-04-29T23:54:48.129Z,66.30
2018-04-29T23:57:14.797Z,66.60
2018-04-29T23:59:41.449Z,67.60
